sensor_id;sensor_type;location;lat;lon;timestamp;temperature;humidity
12254;DHT22;6189;52.526;13.390;2023-04-25T00:00:53;12.30;99.90
12254;DHT22;6189;52.526;13.390;2023-04-25T00:03:48;12.50;99.90
12254;DHT22;6189;52.526;13.390;2023-04-25T00:06:34;12.60;99.70
12254;DHT22;6189;52.526;13.390;2023-04-25T00:09:22;12.70;99.80
12254;DHT22;6189;52.526;13.390;2023-04-25T00:12:07;12.70;99.20
12254;DHT22;6189;52.526;13.390;2023-04-25T00:14:55;12.60;99.20
12254;DHT22;6189;52.526;13.390;2023-04-25T00:17:42;12.60;99.20
12254;DHT22;6189;52.526;13.390;2023-04-25T00:20:29;13.00;98.90
12254;DHT22;6189;52.526;13.390;2023-04-25T00:23:16;12.70;98.50
12254;DHT22;6189;52.526;13.390;2023-04-25T00:26:03;12.60;98.60
12254;DHT22;6189;52.526;13.390;2023-04-25T00:28:49;12.80;98.50
12254;DHT22;6189;52.526;13.390;2023-04-25T00:31:36;12.60;98.20
12254;DHT22;6189;52.526;13.390;2023-04-25T00:34:21;12.40;98.40
12254;DHT22;6189;52.526;13.390;2023-04-25T00:37:07;12.40;98.60
12254;DHT22;6189;52.526;13.390;2023-04-25T00:39:53;12.30;98.40
12254;DHT22;6189;52.526;13.390;2023-04-25T00:42:40;12.20;98.80
12254;DHT22;6189;52.526;13.390;2023-04-25T00:45:28;12.20;99.10
12254;DHT22;6189;52.526;13.390;2023-04-25T00:48:16;12.20;99.00
12254;DHT22;6189;52.526;13.390;2023-04-25T00:51:02;12.10;99.30
12254;DHT22;6189;52.526;13.390;2023-04-25T00:53:49;12.10;99.30
12254;DHT22;6189;52.526;13.390;2023-04-25T00:56:35;12.20;99.10
12254;DHT22;6189;52.526;13.390;2023-04-25T00:59:21;12.20;99.10
12254;DHT22;6189;52.526;13.390;2023-04-25T01:02:06;12.40;99.00
12254;DHT22;6189;52.526;13.390;2023-04-25T01:04:55;12.30;98.90
12254;DHT22;6189;52.526;13.390;2023-04-25T01:07:41;12.40;99.00
12254;DHT22;6189;52.526;13.390;2023-04-25T01:10:26;12.40;98.90
12254;DHT22;6189;52.526;13.390;2023-04-25T01:13:12;12.30;98.90
12254;DHT22;6189;52.526;13.390;2023-04-25T01:15:58;12.30;98.90
12254;DHT22;6189;52.526;13.390;2023-04-25T01:18:45;12.40;99.00
12254;DHT22;6189;52.526;13.390;2023-04-25T01:21:32;12.10;99.00
12254;DHT22;6189;52.526;13.390;2023-04-25T01:24:18;12.30;99.10
12254;DHT22;6189;52.526;13.390;2023-04-25T01:27:04;12.20;99.10
12254;DHT22;6189;52.526;13.390;2023-04-25T01:29:50;12.30;99.30
12254;DHT22;6189;52.526;13.390;2023-04-25T01:32:36;12.40;99.00
12254;DHT22;6189;52.526;13.390;2023-04-25T01:35:23;12.40;99.00
12254;DHT22;6189;52.526;13.390;2023-04-25T01:38:12;12.10;99.20
12254;DHT22;6189;52.526;13.390;2023-04-25T01:40:58;12.20;99.20
12254;DHT22;6189;52.526;13.390;2023-04-25T01:43:44;12.30;99.20
12254;DHT22;6189;52.526;13.390;2023-04-25T01:46:30;12.30;99.00
12254;DHT22;6189;52.526;13.390;2023-04-25T01:49:16;12.20;99.30
12254;DHT22;6189;52.526;13.390;2023-04-25T01:52:02;12.20;99.10
12254;DHT22;6189;52.526;13.390;2023-04-25T01:54:53;12.30;99.20
12254;DHT22;6189;52.526;13.390;2023-04-25T01:57:39;12.50;98.90
12254;DHT22;6189;52.526;13.390;2023-04-25T02:00:25;12.20;98.80
12254;DHT22;6189;52.526;13.390;2023-04-25T02:03:10;12.30;99.10
12254;DHT22;6189;52.526;13.390;2023-04-25T02:05:56;12.30;99.10
12254;DHT22;6189;52.526;13.390;2023-04-25T02:08:42;12.10;99.30
12254;DHT22;6189;52.526;13.390;2023-04-25T02:11:29;12.00;99.60
12254;DHT22;6189;52.526;13.390;2023-04-25T02:14:17;12.10;99.60
12254;DHT22;6189;52.526;13.390;2023-04-25T02:17:02;12.10;99.60
12254;DHT22;6189;52.526;13.390;2023-04-25T02:19:48;12.10;99.60
12254;DHT22;6189;52.526;13.390;2023-04-25T02:22:34;11.90;99.90
12254;DHT22;6189;52.526;13.390;2023-04-25T02:25:21;12.00;99.90
12254;DHT22;6189;52.526;13.390;2023-04-25T02:28:08;11.70;99.90
12254;DHT22;6189;52.526;13.390;2023-04-25T02:30:54;11.60;99.90
12254;DHT22;6189;52.526;13.390;2023-04-25T02:33:43;11.90;99.90
12254;DHT22;6189;52.526;13.390;2023-04-25T02:36:28;11.80;99.90
12254;DHT22;6189;52.526;13.390;2023-04-25T02:39:21;12.10;99.90
12254;DHT22;6189;52.526;13.390;2023-04-25T02:42:09;12.10;99.90
12254;DHT22;6189;52.526;13.390;2023-04-25T02:44:56;12.20;99.70
12254;DHT22;6189;52.526;13.390;2023-04-25T02:47:42;12.00;99.90
12254;DHT22;6189;52.526;13.390;2023-04-25T02:50:27;12.10;99.90
12254;DHT22;6189;52.526;13.390;2023-04-25T02:53:13;12.20;99.90
12254;DHT22;6189;52.526;13.390;2023-04-25T02:55:59;11.90;99.90
12254;DHT22;6189;52.526;13.390;2023-04-25T02:58:45;11.90;99.90
12254;DHT22;6189;52.526;13.390;2023-04-25T03:01:32;11.90;99.90
12254;DHT22;6189;52.526;13.390;2023-04-25T03:04:17;12.20;99.90
12254;DHT22;6189;52.526;13.390;2023-04-25T03:07:05;12.20;99.80
12254;DHT22;6189;52.526;13.390;2023-04-25T03:09:50;12.30;99.70
12254;DHT22;6189;52.526;13.390;2023-04-25T03:12:36;12.40;99.60
12254;DHT22;6189;52.526;13.390;2023-04-25T03:15:22;12.30;99.50
12254;DHT22;6189;52.526;13.390;2023-04-25T03:18:09;12.40;99.30
12254;DHT22;6189;52.526;13.390;2023-04-25T03:20:55;12.40;99.40
12254;DHT22;6189;52.526;13.390;2023-04-25T03:23:42;12.40;99.40
12254;DHT22;6189;52.526;13.390;2023-04-25T03:26:28;12.50;99.20
12254;DHT22;6189;52.526;13.390;2023-04-25T03:29:13;12.50;99.20
12254;DHT22;6189;52.526;13.390;2023-04-25T03:31:59;12.30;99.70
12254;DHT22;6189;52.526;13.390;2023-04-25T03:34:46;12.30;99.40
12254;DHT22;6189;52.526;13.390;2023-04-25T03:37:32;12.20;99.70
12254;DHT22;6189;52.526;13.390;2023-04-25T03:40:17;12.20;99.70
12254;DHT22;6189;52.526;13.390;2023-04-25T03:43:18;12.10;99.80
12254;DHT22;6189;52.526;13.390;2023-04-25T03:46:04;11.80;99.90
12254;DHT22;6189;52.526;13.390;2023-04-25T03:48:50;11.70;99.90
12254;DHT22;6189;52.526;13.390;2023-04-25T03:51:37;11.70;99.90
12254;DHT22;6189;52.526;13.390;2023-04-25T03:54:22;11.90;99.90
12254;DHT22;6189;52.526;13.390;2023-04-25T03:57:08;11.80;99.90
12254;DHT22;6189;52.526;13.390;2023-04-25T03:59:54;12.00;99.90
12254;DHT22;6189;52.526;13.390;2023-04-25T04:02:40;11.90;99.90
12254;DHT22;6189;52.526;13.390;2023-04-25T04:05:25;12.10;99.90
12254;DHT22;6189;52.526;13.390;2023-04-25T04:08:27;12.10;99.90
12254;DHT22;6189;52.526;13.390;2023-04-25T04:11:21;11.80;99.90
12254;DHT22;6189;52.526;13.390;2023-04-25T04:14:06;11.90;99.90
12254;DHT22;6189;52.526;13.390;2023-04-25T04:16:52;12.00;99.90
12254;DHT22;6189;52.526;13.390;2023-04-25T04:19:38;11.90;99.90
12254;DHT22;6189;52.526;13.390;2023-04-25T04:22:24;11.70;99.90
12254;DHT22;6189;52.526;13.390;2023-04-25T04:25:11;11.80;99.90
12254;DHT22;6189;52.526;13.390;2023-04-25T04:27:57;11.90;99.90
12254;DHT22;6189;52.526;13.390;2023-04-25T04:30:43;11.90;99.90
12254;DHT22;6189;52.526;13.390;2023-04-25T04:33:31;12.00;99.90
12254;DHT22;6189;52.526;13.390;2023-04-25T04:36:17;11.90;99.90
12254;DHT22;6189;52.526;13.390;2023-04-25T04:39:06;12.00;99.90
12254;DHT22;6189;52.526;13.390;2023-04-25T04:41:54;12.00;99.90
12254;DHT22;6189;52.526;13.390;2023-04-25T04:44:40;11.90;99.90
12254;DHT22;6189;52.526;13.390;2023-04-25T04:47:28;12.00;99.90
12254;DHT22;6189;52.526;13.390;2023-04-25T04:50:15;11.90;99.90
12254;DHT22;6189;52.526;13.390;2023-04-25T04:53:02;11.80;99.90
12254;DHT22;6189;52.526;13.390;2023-04-25T04:55:47;12.00;99.90
12254;DHT22;6189;52.526;13.390;2023-04-25T04:58:36;11.90;99.90
12254;DHT22;6189;52.526;13.390;2023-04-25T05:01:21;11.70;99.90
12254;DHT22;6189;52.526;13.390;2023-04-25T05:04:07;11.50;99.90
12254;DHT22;6189;52.526;13.390;2023-04-25T05:06:53;11.40;99.90
12254;DHT22;6189;52.526;13.390;2023-04-25T05:09:39;11.30;99.90
12254;DHT22;6189;52.526;13.390;2023-04-25T05:12:26;11.60;99.90
12254;DHT22;6189;52.526;13.390;2023-04-25T05:15:14;11.60;99.90
12254;DHT22;6189;52.526;13.390;2023-04-25T05:18:09;11.50;99.90
12254;DHT22;6189;52.526;13.390;2023-04-25T05:20:55;11.70;99.90
12254;DHT22;6189;52.526;13.390;2023-04-25T05:23:41;11.80;99.90
12254;DHT22;6189;52.526;13.390;2023-04-25T05:26:27;11.80;99.90
12254;DHT22;6189;52.526;13.390;2023-04-25T05:29:15;11.80;99.90
12254;DHT22;6189;52.526;13.390;2023-04-25T05:32:02;11.80;99.90
12254;DHT22;6189;52.526;13.390;2023-04-25T05:34:48;11.80;99.90
12254;DHT22;6189;52.526;13.390;2023-04-25T05:37:34;11.70;99.90
12254;DHT22;6189;52.526;13.390;2023-04-25T05:40:19;11.60;99.90
12254;DHT22;6189;52.526;13.390;2023-04-25T05:43:05;11.60;99.90
12254;DHT22;6189;52.526;13.390;2023-04-25T05:45:51;11.70;99.90
12254;DHT22;6189;52.526;13.390;2023-04-25T05:48:56;11.80;99.90
12254;DHT22;6189;52.526;13.390;2023-04-25T05:51:54;11.70;99.90
12254;DHT22;6189;52.526;13.390;2023-04-25T05:54:40;11.80;99.90
12254;DHT22;6189;52.526;13.390;2023-04-25T05:57:26;12.00;99.90
12254;DHT22;6189;52.526;13.390;2023-04-25T06:00:13;11.80;99.90
12254;DHT22;6189;52.526;13.390;2023-04-25T06:03:00;11.70;99.90
12254;DHT22;6189;52.526;13.390;2023-04-25T06:05:47;11.80;99.90
12254;DHT22;6189;52.526;13.390;2023-04-25T06:08:33;12.00;99.90
12254;DHT22;6189;52.526;13.390;2023-04-25T06:11:18;11.80;99.90
12254;DHT22;6189;52.526;13.390;2023-04-25T06:14:04;11.60;99.90
12254;DHT22;6189;52.526;13.390;2023-04-25T06:16:50;11.50;99.90
12254;DHT22;6189;52.526;13.390;2023-04-25T06:19:36;11.60;99.90
12254;DHT22;6189;52.526;13.390;2023-04-25T06:22:23;11.70;99.90
12254;DHT22;6189;52.526;13.390;2023-04-25T06:25:08;11.60;99.90
12254;DHT22;6189;52.526;13.390;2023-04-25T06:27:54;11.90;99.90
12254;DHT22;6189;52.526;13.390;2023-04-25T06:30:42;11.80;99.90
12254;DHT22;6189;52.526;13.390;2023-04-25T06:33:27;11.90;99.90
12254;DHT22;6189;52.526;13.390;2023-04-25T06:36:15;11.90;99.90
12254;DHT22;6189;52.526;13.390;2023-04-25T06:39:05;11.70;99.90
12254;DHT22;6189;52.526;13.390;2023-04-25T06:41:51;11.60;99.90
12254;DHT22;6189;52.526;13.390;2023-04-25T06:44:39;11.60;99.90
12254;DHT22;6189;52.526;13.390;2023-04-25T06:47:26;11.50;99.90
12254;DHT22;6189;52.526;13.390;2023-04-25T06:50:12;11.40;99.90
12254;DHT22;6189;52.526;13.390;2023-04-25T06:52:58;11.70;99.90
12254;DHT22;6189;52.526;13.390;2023-04-25T06:55:47;11.90;99.90
12254;DHT22;6189;52.526;13.390;2023-04-25T06:58:36;11.90;99.90
12254;DHT22;6189;52.526;13.390;2023-04-25T07:01:21;11.90;99.90
12254;DHT22;6189;52.526;13.390;2023-04-25T07:04:07;11.90;99.90
12254;DHT22;6189;52.526;13.390;2023-04-25T07:06:53;11.80;99.90
12254;DHT22;6189;52.526;13.390;2023-04-25T07:09:39;11.90;99.90
12254;DHT22;6189;52.526;13.390;2023-04-25T07:12:26;11.50;99.90
12254;DHT22;6189;52.526;13.390;2023-04-25T07:15:11;11.00;99.90
12254;DHT22;6189;52.526;13.390;2023-04-25T07:17:57;11.20;99.90
12254;DHT22;6189;52.526;13.390;2023-04-25T07:20:43;10.90;99.90
12254;DHT22;6189;52.526;13.390;2023-04-25T07:23:29;10.90;99.90
12254;DHT22;6189;52.526;13.390;2023-04-25T07:26:15;11.00;99.90
12254;DHT22;6189;52.526;13.390;2023-04-25T07:29:02;10.90;99.90
12254;DHT22;6189;52.526;13.390;2023-04-25T07:31:48;11.20;99.90
12254;DHT22;6189;52.526;13.390;2023-04-25T07:34:35;11.20;99.90
12254;DHT22;6189;52.526;13.390;2023-04-25T07:37:21;11.30;99.90
12254;DHT22;6189;52.526;13.390;2023-04-25T07:40:08;11.40;99.90
12254;DHT22;6189;52.526;13.390;2023-04-25T07:42:54;11.40;99.90
12254;DHT22;6189;52.526;13.390;2023-04-25T07:45:41;11.30;99.90
12254;DHT22;6189;52.526;13.390;2023-04-25T07:48:27;11.70;99.90
12254;DHT22;6189;52.526;13.390;2023-04-25T07:51:13;11.30;99.90
12254;DHT22;6189;52.526;13.390;2023-04-25T07:54:01;11.40;99.90
12254;DHT22;6189;52.526;13.390;2023-04-25T07:56:46;11.20;99.90
12254;DHT22;6189;52.526;13.390;2023-04-25T07:59:32;11.60;99.90
12254;DHT22;6189;52.526;13.390;2023-04-25T08:02:19;11.70;99.90
12254;DHT22;6189;52.526;13.390;2023-04-25T08:05:07;11.40;99.90
12254;DHT22;6189;52.526;13.390;2023-04-25T08:07:56;11.20;99.90
12254;DHT22;6189;52.526;13.390;2023-04-25T08:10:42;11.40;99.90
12254;DHT22;6189;52.526;13.390;2023-04-25T08:13:27;10.90;99.90
12254;DHT22;6189;52.526;13.390;2023-04-25T08:16:13;10.70;99.90
12254;DHT22;6189;52.526;13.390;2023-04-25T08:19:00;10.60;99.90
12254;DHT22;6189;52.526;13.390;2023-04-25T08:21:46;10.50;99.90
12254;DHT22;6189;52.526;13.390;2023-04-25T08:24:32;10.50;99.90
12254;DHT22;6189;52.526;13.390;2023-04-25T08:27:18;10.80;99.90
12254;DHT22;6189;52.526;13.390;2023-04-25T08:30:06;11.10;99.90
12254;DHT22;6189;52.526;13.390;2023-04-25T08:32:53;11.30;99.90
12254;DHT22;6189;52.526;13.390;2023-04-25T08:35:40;11.50;99.90
12254;DHT22;6189;52.526;13.390;2023-04-25T08:38:25;11.60;99.90
12254;DHT22;6189;52.526;13.390;2023-04-25T08:41:12;11.10;99.90
12254;DHT22;6189;52.526;13.390;2023-04-25T08:43:59;11.10;99.90
12254;DHT22;6189;52.526;13.390;2023-04-25T08:46:47;10.90;99.90
12254;DHT22;6189;52.526;13.390;2023-04-25T08:49:34;10.80;99.90
12254;DHT22;6189;52.526;13.390;2023-04-25T08:52:23;10.80;99.90
12254;DHT22;6189;52.526;13.390;2023-04-25T08:55:09;10.80;99.90
12254;DHT22;6189;52.526;13.390;2023-04-25T08:57:57;11.30;99.90
12254;DHT22;6189;52.526;13.390;2023-04-25T09:00:46;11.30;98.70
12254;DHT22;6189;52.526;13.390;2023-04-25T09:03:32;11.40;97.80
12254;DHT22;6189;52.526;13.390;2023-04-25T09:06:18;11.40;97.30
12254;DHT22;6189;52.526;13.390;2023-04-25T09:09:07;11.50;97.40
12254;DHT22;6189;52.526;13.390;2023-04-25T09:11:55;11.80;97.20
12254;DHT22;6189;52.526;13.390;2023-04-25T09:14:41;12.00;95.90
12254;DHT22;6189;52.526;13.390;2023-04-25T09:17:28;12.20;95.60
12254;DHT22;6189;52.526;13.390;2023-04-25T09:20:14;12.70;94.70
12254;DHT22;6189;52.526;13.390;2023-04-25T09:23:04;13.00;92.70
12254;DHT22;6189;52.526;13.390;2023-04-25T09:25:52;13.20;92.30
12254;DHT22;6189;52.526;13.390;2023-04-25T09:28:38;13.30;90.60
12254;DHT22;6189;52.526;13.390;2023-04-25T09:31:24;13.20;89.80
12254;DHT22;6189;52.526;13.390;2023-04-25T09:34:09;13.10;91.00
12254;DHT22;6189;52.526;13.390;2023-04-25T09:37:01;13.30;91.00
12254;DHT22;6189;52.526;13.390;2023-04-25T09:39:48;13.20;90.00
12254;DHT22;6189;52.526;13.390;2023-04-25T09:42:35;13.50;88.60
12254;DHT22;6189;52.526;13.390;2023-04-25T09:45:21;14.00;89.50
12254;DHT22;6189;52.526;13.390;2023-04-25T09:48:07;14.00;85.00
12254;DHT22;6189;52.526;13.390;2023-04-25T09:51:08;13.90;81.60
12254;DHT22;6189;52.526;13.390;2023-04-25T09:53:54;13.20;81.30
12254;DHT22;6189;52.526;13.390;2023-04-25T09:56:39;13.10;80.80
12254;DHT22;6189;52.526;13.390;2023-04-25T09:59:28;13.00;80.30
12254;DHT22;6189;52.526;13.390;2023-04-25T10:02:20;13.50;83.60
12254;DHT22;6189;52.526;13.390;2023-04-25T10:05:07;13.40;81.00
12254;DHT22;6189;52.526;13.390;2023-04-25T10:07:53;13.60;80.20
12254;DHT22;6189;52.526;13.390;2023-04-25T10:10:40;13.70;81.20
12254;DHT22;6189;52.526;13.390;2023-04-25T10:13:27;13.90;77.40
12254;DHT22;6189;52.526;13.390;2023-04-25T10:16:15;13.60;76.90
12254;DHT22;6189;52.526;13.390;2023-04-25T10:19:02;13.10;78.00
12254;DHT22;6189;52.526;13.390;2023-04-25T10:21:51;12.80;79.10
12254;DHT22;6189;52.526;13.390;2023-04-25T10:24:38;12.80;79.30
12254;DHT22;6189;52.526;13.390;2023-04-25T10:27:26;13.00;79.50
12254;DHT22;6189;52.526;13.390;2023-04-25T10:30:14;12.70;77.70
12254;DHT22;6189;52.526;13.390;2023-04-25T10:33:01;13.00;81.70
12254;DHT22;6189;52.526;13.390;2023-04-25T10:35:47;13.00;78.70
12254;DHT22;6189;52.526;13.390;2023-04-25T10:38:32;12.80;77.90
12254;DHT22;6189;52.526;13.390;2023-04-25T10:41:19;13.10;78.60
12254;DHT22;6189;52.526;13.390;2023-04-25T10:44:05;12.60;77.20
12254;DHT22;6189;52.526;13.390;2023-04-25T10:46:51;13.00;77.70
12254;DHT22;6189;52.526;13.390;2023-04-25T10:49:41;13.00;76.30
12254;DHT22;6189;52.526;13.390;2023-04-25T10:52:27;12.60;76.00
12254;DHT22;6189;52.526;13.390;2023-04-25T10:55:13;12.50;77.20
12254;DHT22;6189;52.526;13.390;2023-04-25T10:58:00;12.80;78.30
12254;DHT22;6189;52.526;13.390;2023-04-25T11:00:46;13.20;78.70
12254;DHT22;6189;52.526;13.390;2023-04-25T11:03:32;13.40;75.30
12254;DHT22;6189;52.526;13.390;2023-04-25T11:06:22;13.40;76.10
12254;DHT22;6189;52.526;13.390;2023-04-25T11:09:10;13.20;74.60
12254;DHT22;6189;52.526;13.390;2023-04-25T11:11:58;12.80;74.50
12254;DHT22;6189;52.526;13.390;2023-04-25T11:14:44;12.90;75.00
12254;DHT22;6189;52.526;13.390;2023-04-25T11:17:30;12.80;74.80
12254;DHT22;6189;52.526;13.390;2023-04-25T11:20:16;12.60;74.70
12254;DHT22;6189;52.526;13.390;2023-04-25T11:23:04;11.80;76.80
12254;DHT22;6189;52.526;13.390;2023-04-25T11:25:49;11.80;80.90
12254;DHT22;6189;52.526;13.390;2023-04-25T11:28:36;11.80;78.60
12254;DHT22;6189;52.526;13.390;2023-04-25T11:31:22;11.90;78.10
12254;DHT22;6189;52.526;13.390;2023-04-25T11:34:09;11.90;76.20
12254;DHT22;6189;52.526;13.390;2023-04-25T11:36:55;11.90;76.50
12254;DHT22;6189;52.526;13.390;2023-04-25T11:39:44;12.40;77.00
12254;DHT22;6189;52.526;13.390;2023-04-25T11:42:31;12.30;73.20
12254;DHT22;6189;52.526;13.390;2023-04-25T11:45:17;12.10;72.20
12254;DHT22;6189;52.526;13.390;2023-04-25T11:48:03;12.40;73.50
12254;DHT22;6189;52.526;13.390;2023-04-25T11:50:48;12.30;71.10
12254;DHT22;6189;52.526;13.390;2023-04-25T11:53:34;12.40;70.90
12254;DHT22;6189;52.526;13.390;2023-04-25T11:56:22;12.20;71.30
12254;DHT22;6189;52.526;13.390;2023-04-25T11:59:08;12.50;73.30
12254;DHT22;6189;52.526;13.390;2023-04-25T12:01:53;12.40;70.90
12254;DHT22;6189;52.526;13.390;2023-04-25T12:04:41;12.50;71.20
12254;DHT22;6189;52.526;13.390;2023-04-25T12:07:28;12.50;71.20
12254;DHT22;6189;52.526;13.390;2023-04-25T12:10:16;12.70;72.20
12254;DHT22;6189;52.526;13.390;2023-04-25T12:13:18;12.60;71.70
12254;DHT22;6189;52.526;13.390;2023-04-25T12:16:07;12.90;72.30
12254;DHT22;6189;52.526;13.390;2023-04-25T12:18:53;12.90;71.40
12254;DHT22;6189;52.526;13.390;2023-04-25T12:21:38;12.80;71.70
12254;DHT22;6189;52.526;13.390;2023-04-25T12:24:26;12.10;71.00
12254;DHT22;6189;52.526;13.390;2023-04-25T12:27:14;11.90;70.60
12254;DHT22;6189;52.526;13.390;2023-04-25T12:30:05;11.90;70.10
12254;DHT22;6189;52.526;13.390;2023-04-25T12:32:51;12.10;70.90
12254;DHT22;6189;52.526;13.390;2023-04-25T12:35:36;12.10;70.00
12254;DHT22;6189;52.526;13.390;2023-04-25T12:38:23;12.40;69.60
12254;DHT22;6189;52.526;13.390;2023-04-25T12:41:09;12.30;69.90
12254;DHT22;6189;52.526;13.390;2023-04-25T12:43:55;12.60;70.90
12254;DHT22;6189;52.526;13.390;2023-04-25T12:46:42;12.50;68.40
12254;DHT22;6189;52.526;13.390;2023-04-25T12:49:27;12.30;68.80
12254;DHT22;6189;52.526;13.390;2023-04-25T12:52:13;12.40;70.00
12254;DHT22;6189;52.526;13.390;2023-04-25T12:54:59;12.40;69.00
12254;DHT22;6189;52.526;13.390;2023-04-25T12:57:45;12.50;68.80
12254;DHT22;6189;52.526;13.390;2023-04-25T13:00:30;12.70;67.30
12254;DHT22;6189;52.526;13.390;2023-04-25T13:03:18;12.70;65.90
12254;DHT22;6189;52.526;13.390;2023-04-25T13:06:04;12.90;66.50
12254;DHT22;6189;52.526;13.390;2023-04-25T13:08:50;12.80;65.80
12254;DHT22;6189;52.526;13.390;2023-04-25T13:11:36;12.80;66.00
12254;DHT22;6189;52.526;13.390;2023-04-25T13:14:21;12.50;66.50
12254;DHT22;6189;52.526;13.390;2023-04-25T13:17:07;12.50;67.60
12254;DHT22;6189;52.526;13.390;2023-04-25T13:19:54;12.80;67.30
12254;DHT22;6189;52.526;13.390;2023-04-25T13:22:40;13.30;66.70
12254;DHT22;6189;52.526;13.390;2023-04-25T13:25:26;13.70;65.10
12254;DHT22;6189;52.526;13.390;2023-04-25T13:28:12;14.00;63.80
12254;DHT22;6189;52.526;13.390;2023-04-25T13:30:57;13.80;63.40
12254;DHT22;6189;52.526;13.390;2023-04-25T13:33:43;13.60;64.30
12254;DHT22;6189;52.526;13.390;2023-04-25T13:36:30;13.60;65.60
12254;DHT22;6189;52.526;13.390;2023-04-25T13:39:16;13.60;65.90
12254;DHT22;6189;52.526;13.390;2023-04-25T13:42:02;13.30;66.40
12254;DHT22;6189;52.526;13.390;2023-04-25T13:44:47;13.40;67.10
12254;DHT22;6189;52.526;13.390;2023-04-25T13:47:33;12.70;68.20
12254;DHT22;6189;52.526;13.390;2023-04-25T13:50:19;12.20;70.00
12254;DHT22;6189;52.526;13.390;2023-04-25T13:53:06;12.20;70.60
12254;DHT22;6189;52.526;13.390;2023-04-25T13:55:52;12.10;71.30
12254;DHT22;6189;52.526;13.390;2023-04-25T13:58:38;12.20;71.70
12254;DHT22;6189;52.526;13.390;2023-04-25T14:01:24;12.20;71.40
12254;DHT22;6189;52.526;13.390;2023-04-25T14:04:11;12.20;70.70
12254;DHT22;6189;52.526;13.390;2023-04-25T14:06:57;12.40;70.50
12254;DHT22;6189;52.526;13.390;2023-04-25T14:09:45;11.90;71.30
12254;DHT22;6189;52.526;13.390;2023-04-25T14:12:30;12.30;72.20
12254;DHT22;6189;52.526;13.390;2023-04-25T14:15:16;12.60;71.40
12254;DHT22;6189;52.526;13.390;2023-04-25T14:18:02;12.40;70.30
12254;DHT22;6189;52.526;13.390;2023-04-25T14:20:48;12.30;70.90
12254;DHT22;6189;52.526;13.390;2023-04-25T14:23:33;12.00;71.10
12254;DHT22;6189;52.526;13.390;2023-04-25T14:26:20;12.00;71.30
12254;DHT22;6189;52.526;13.390;2023-04-25T14:29:06;12.20;70.90
12254;DHT22;6189;52.526;13.390;2023-04-25T14:31:52;11.90;69.80
12254;DHT22;6189;52.526;13.390;2023-04-25T14:34:38;11.60;69.80
12254;DHT22;6189;52.526;13.390;2023-04-25T14:37:24;11.70;70.50
12254;DHT22;6189;52.526;13.390;2023-04-25T14:40:10;11.70;71.50
12254;DHT22;6189;52.526;13.390;2023-04-25T14:42:58;11.70;72.30
12254;DHT22;6189;52.526;13.390;2023-04-25T14:45:44;12.20;72.90
12254;DHT22;6189;52.526;13.390;2023-04-25T14:48:30;12.20;72.00
12254;DHT22;6189;52.526;13.390;2023-04-25T14:51:16;12.40;72.20
12254;DHT22;6189;52.526;13.390;2023-04-25T14:54:02;12.50;72.20
12254;DHT22;6189;52.526;13.390;2023-04-25T14:56:47;12.60;72.30
12254;DHT22;6189;52.526;13.390;2023-04-25T14:59:34;12.60;72.70
12254;DHT22;6189;52.526;13.390;2023-04-25T15:02:20;12.70;73.00
12254;DHT22;6189;52.526;13.390;2023-04-25T15:05:06;12.20;74.10
12254;DHT22;6189;52.526;13.390;2023-04-25T15:07:53;11.90;76.50
12254;DHT22;6189;52.526;13.390;2023-04-25T15:10:38;11.60;77.50
12254;DHT22;6189;52.526;13.390;2023-04-25T15:13:24;11.80;77.40
12254;DHT22;6189;52.526;13.390;2023-04-25T15:16:12;11.70;76.80
12254;DHT22;6189;52.526;13.390;2023-04-25T15:18:57;11.50;77.40
12254;DHT22;6189;52.526;13.390;2023-04-25T15:21:43;11.50;77.90
12254;DHT22;6189;52.526;13.390;2023-04-25T15:24:29;11.70;77.20
12254;DHT22;6189;52.526;13.390;2023-04-25T15:27:14;11.90;77.00
12254;DHT22;6189;52.526;13.390;2023-04-25T15:30:01;12.20;75.60
12254;DHT22;6189;52.526;13.390;2023-04-25T15:32:48;12.30;75.20
12254;DHT22;6189;52.526;13.390;2023-04-25T15:35:33;12.30;74.40
12254;DHT22;6189;52.526;13.390;2023-04-25T15:38:19;12.30;71.40
12254;DHT22;6189;52.526;13.390;2023-04-25T15:41:05;11.90;72.70
12254;DHT22;6189;52.526;13.390;2023-04-25T15:43:52;12.10;73.00
12254;DHT22;6189;52.526;13.390;2023-04-25T15:46:37;12.00;72.30
12254;DHT22;6189;52.526;13.390;2023-04-25T15:49:24;11.90;73.00
12254;DHT22;6189;52.526;13.390;2023-04-25T15:52:11;11.70;73.60
12254;DHT22;6189;52.526;13.390;2023-04-25T15:54:57;11.60;74.40
12254;DHT22;6189;52.526;13.390;2023-04-25T15:57:43;11.90;74.80
12254;DHT22;6189;52.526;13.390;2023-04-25T16:00:28;12.00;73.90
12254;DHT22;6189;52.526;13.390;2023-04-25T16:03:14;11.80;74.90
12254;DHT22;6189;52.526;13.390;2023-04-25T16:06:01;11.90;74.80
12254;DHT22;6189;52.526;13.390;2023-04-25T16:08:47;12.00;75.30
12254;DHT22;6189;52.526;13.390;2023-04-25T16:11:33;12.00;74.10
12254;DHT22;6189;52.526;13.390;2023-04-25T16:14:19;11.80;71.50
12254;DHT22;6189;52.526;13.390;2023-04-25T16:17:05;11.80;71.10
12254;DHT22;6189;52.526;13.390;2023-04-25T16:19:50;11.40;69.80
12254;DHT22;6189;52.526;13.390;2023-04-25T16:22:38;11.50;71.00
12254;DHT22;6189;52.526;13.390;2023-04-25T16:25:24;11.60;70.20
12254;DHT22;6189;52.526;13.390;2023-04-25T16:28:10;11.50;68.80
12254;DHT22;6189;52.526;13.390;2023-04-25T16:30:56;11.60;68.70
12254;DHT22;6189;52.526;13.390;2023-04-25T16:33:42;11.40;67.00
12254;DHT22;6189;52.526;13.390;2023-04-25T16:36:27;11.30;68.10
12254;DHT22;6189;52.526;13.390;2023-04-25T16:39:16;11.70;69.30
12254;DHT22;6189;52.526;13.390;2023-04-25T16:42:02;11.80;68.70
12254;DHT22;6189;52.526;13.390;2023-04-25T16:44:48;11.70;69.00
12254;DHT22;6189;52.526;13.390;2023-04-25T16:47:34;11.70;69.70
12254;DHT22;6189;52.526;13.390;2023-04-25T16:50:19;11.70;69.00
12254;DHT22;6189;52.526;13.390;2023-04-25T16:53:05;11.70;68.60
12254;DHT22;6189;52.526;13.390;2023-04-25T16:55:52;11.70;69.50
12254;DHT22;6189;52.526;13.390;2023-04-25T16:58:37;11.70;69.50
12254;DHT22;6189;52.526;13.390;2023-04-25T17:01:23;11.70;70.10
12254;DHT22;6189;52.526;13.390;2023-04-25T17:04:09;11.80;69.30
12254;DHT22;6189;52.526;13.390;2023-04-25T17:06:55;11.60;69.70
12254;DHT22;6189;52.526;13.390;2023-04-25T17:09:40;11.70;70.60
12254;DHT22;6189;52.526;13.390;2023-04-25T17:12:27;11.60;70.40
12254;DHT22;6189;52.526;13.390;2023-04-25T17:15:13;11.50;71.40
12254;DHT22;6189;52.526;13.390;2023-04-25T17:17:59;11.60;70.80
12254;DHT22;6189;52.526;13.390;2023-04-25T17:20:45;11.40;71.10
12254;DHT22;6189;52.526;13.390;2023-04-25T17:23:30;11.40;71.70
12254;DHT22;6189;52.526;13.390;2023-04-25T17:26:16;11.50;72.20
12254;DHT22;6189;52.526;13.390;2023-04-25T17:29:03;11.70;72.40
12254;DHT22;6189;52.526;13.390;2023-04-25T17:31:48;11.60;71.70